Terminal Aerodrome Forecast
Issued by NWS

Home | Current Version | Previous Version | Text Only | Print | Product List | Glossary On
Versions: 1 2 3 4 5 6 7 8 9 10 11 12 13 14 15 16 17
000
FTUS42 TJSJ 011739
TAFJBQ
TAF
TJBQ 011739Z 0118/0218 08016G21KT P6SM SCT025 SCT040 SCT250
     FM012230 08010KT P6SM FEW025 SCT250
     FM021400 07018KT P6SM SCT025
      AMD NOT SKED 0202/0211=

USA.gov is the U.S. government's official web portal to all federal, state and local government web resources and services.